sensor_id;sensor_type;location;lat;lon;timestamp;temperature;humidity
44431;DHT22;30135;47.866;-4.222;2022-07-29T00:01:16;20.60;61.80
44431;DHT22;30135;47.866;-4.222;2022-07-29T00:03:42;20.70;61.00
44431;DHT22;30135;47.866;-4.222;2022-07-29T00:06:15;20.60;60.60
44431;DHT22;30135;47.866;-4.222;2022-07-29T00:08:42;20.60;61.00
44431;DHT22;30135;47.866;-4.222;2022-07-29T00:11:08;20.60;61.10
44431;DHT22;30135;47.866;-4.222;2022-07-29T00:13:34;20.60;61.20
44431;DHT22;30135;47.866;-4.222;2022-07-29T00:16:00;20.60;61.40
44431;DHT22;30135;47.866;-4.222;2022-07-29T00:18:26;20.60;61.60
44431;DHT22;30135;47.866;-4.222;2022-07-29T00:20:52;20.60;61.80
44431;DHT22;30135;47.866;-4.222;2022-07-29T00:23:18;20.60;61.90
44431;DHT22;30135;47.866;-4.222;2022-07-29T00:25:44;20.60;62.90
44431;DHT22;30135;47.866;-4.222;2022-07-29T00:28:10;20.60;62.30
44431;DHT22;30135;47.866;-4.222;2022-07-29T00:30:36;20.60;62.50
44431;DHT22;30135;47.866;-4.222;2022-07-29T00:33:03;20.60;62.80
44431;DHT22;30135;47.866;-4.222;2022-07-29T00:35:29;20.50;62.90
44431;DHT22;30135;47.866;-4.222;2022-07-29T00:38:14;20.50;63.10
44431;DHT22;30135;47.866;-4.222;2022-07-29T00:40:41;20.50;63.50
44431;DHT22;30135;47.866;-4.222;2022-07-29T00:43:08;20.60;63.70
44431;DHT22;30135;47.866;-4.222;2022-07-29T00:45:35;20.50;63.80
44431;DHT22;30135;47.866;-4.222;2022-07-29T00:48:02;20.50;64.00
44431;DHT22;30135;47.866;-4.222;2022-07-29T00:50:30;20.50;64.20
44431;DHT22;30135;47.866;-4.222;2022-07-29T00:52:58;20.50;65.10
44431;DHT22;30135;47.866;-4.222;2022-07-29T00:55:25;20.50;64.60
44431;DHT22;30135;47.866;-4.222;2022-07-29T00:57:52;20.50;64.90
44431;DHT22;30135;47.866;-4.222;2022-07-29T01:00:23;20.60;65.00
44431;DHT22;30135;47.866;-4.222;2022-07-29T01:02:51;20.50;65.20
44431;DHT22;30135;47.866;-4.222;2022-07-29T01:05:20;20.50;65.30
44431;DHT22;30135;47.866;-4.222;2022-07-29T01:07:54;20.50;65.50
44431;DHT22;30135;47.866;-4.222;2022-07-29T01:10:22;20.50;65.70
44431;DHT22;30135;47.866;-4.222;2022-07-29T01:12:50;20.50;65.90
44431;DHT22;30135;47.866;-4.222;2022-07-29T01:15:24;20.50;66.00
44431;DHT22;30135;47.866;-4.222;2022-07-29T01:18:25;20.50;66.20
44431;DHT22;30135;47.866;-4.222;2022-07-29T01:26:54;20.50;66.60
44431;DHT22;30135;47.866;-4.222;2022-07-29T01:29:38;20.50;66.70
44431;DHT22;30135;47.866;-4.222;2022-07-29T01:32:18;20.50;66.80
44431;DHT22;30135;47.866;-4.222;2022-07-29T01:35:10;20.40;66.90
44431;DHT22;30135;47.866;-4.222;2022-07-29T01:38:13;20.40;67.00
44431;DHT22;30135;47.866;-4.222;2022-07-29T01:41:18;20.40;67.20
44431;DHT22;30135;47.866;-4.222;2022-07-29T01:43:57;20.40;67.50
44431;DHT22;30135;47.866;-4.222;2022-07-29T01:46:39;20.40;67.60
44431;DHT22;30135;47.866;-4.222;2022-07-29T01:49:11;20.40;67.70
44431;DHT22;30135;47.866;-4.222;2022-07-29T01:52:11;20.40;67.80
44431;DHT22;30135;47.866;-4.222;2022-07-29T01:54:45;20.40;68.10
44431;DHT22;30135;47.866;-4.222;2022-07-29T01:57:16;20.30;68.00
44431;DHT22;30135;47.866;-4.222;2022-07-29T01:59:45;20.30;68.10
44431;DHT22;30135;47.866;-4.222;2022-07-29T02:02:14;20.30;68.00
44431;DHT22;30135;47.866;-4.222;2022-07-29T02:04:42;20.20;67.90
44431;DHT22;30135;47.866;-4.222;2022-07-29T02:07:12;20.30;68.00
44431;DHT22;30135;47.866;-4.222;2022-07-29T02:09:49;20.30;68.00
44431;DHT22;30135;47.866;-4.222;2022-07-29T02:12:17;20.30;68.00
44431;DHT22;30135;47.866;-4.222;2022-07-29T02:14:48;20.20;67.90
44431;DHT22;30135;47.866;-4.222;2022-07-29T02:17:22;20.20;67.90
44431;DHT22;30135;47.866;-4.222;2022-07-29T02:19:53;20.20;67.90
44431;DHT22;30135;47.866;-4.222;2022-07-29T02:22:24;20.20;67.90
44431;DHT22;30135;47.866;-4.222;2022-07-29T02:24:52;20.20;67.90
44431;DHT22;30135;47.866;-4.222;2022-07-29T02:27:19;20.20;67.90
44431;DHT22;30135;47.866;-4.222;2022-07-29T02:29:47;20.20;67.90
44431;DHT22;30135;47.866;-4.222;2022-07-29T02:32:16;20.20;68.00
44431;DHT22;30135;47.866;-4.222;2022-07-29T02:34:43;20.20;68.00
44431;DHT22;30135;47.866;-4.222;2022-07-29T02:37:10;20.10;68.00
44431;DHT22;30135;47.866;-4.222;2022-07-29T02:39:37;20.10;68.10
44431;DHT22;30135;47.866;-4.222;2022-07-29T02:42:07;20.10;68.10
44431;DHT22;30135;47.866;-4.222;2022-07-29T02:44:34;20.10;68.00
44431;DHT22;30135;47.866;-4.222;2022-07-29T02:50:08;20.10;67.90
44431;DHT22;30135;47.866;-4.222;2022-07-29T02:53:01;20.10;67.80
44431;DHT22;30135;47.866;-4.222;2022-07-29T02:55:32;20.10;67.70
44431;DHT22;30135;47.866;-4.222;2022-07-29T02:58:09;20.00;67.70
44431;DHT22;30135;47.866;-4.222;2022-07-29T03:01:08;20.00;67.70
44431;DHT22;30135;47.866;-4.222;2022-07-29T03:03:38;20.00;67.70
44431;DHT22;30135;47.866;-4.222;2022-07-29T03:06:06;20.00;67.70
44431;DHT22;30135;47.866;-4.222;2022-07-29T03:08:34;20.00;67.70
44431;DHT22;30135;47.866;-4.222;2022-07-29T03:11:07;20.00;67.80
44431;DHT22;30135;47.866;-4.222;2022-07-29T03:13:35;20.00;67.80
44431;DHT22;30135;47.866;-4.222;2022-07-29T03:16:01;20.00;67.80
44431;DHT22;30135;47.866;-4.222;2022-07-29T03:18:29;20.00;67.80
44431;DHT22;30135;47.866;-4.222;2022-07-29T03:20:56;20.00;67.80
44431;DHT22;30135;47.866;-4.222;2022-07-29T03:23:23;20.00;67.90
44431;DHT22;30135;47.866;-4.222;2022-07-29T03:25:51;20.00;67.90
44431;DHT22;30135;47.866;-4.222;2022-07-29T03:28:18;19.90;67.80
44431;DHT22;30135;47.866;-4.222;2022-07-29T03:30:45;19.90;67.80
44431;DHT22;30135;47.866;-4.222;2022-07-29T03:33:11;19.90;68.70
44431;DHT22;30135;47.866;-4.222;2022-07-29T03:35:37;19.90;67.90
44431;DHT22;30135;47.866;-4.222;2022-07-29T03:38:03;19.90;67.90
44431;DHT22;30135;47.866;-4.222;2022-07-29T03:40:42;19.90;68.00
44431;DHT22;30135;47.866;-4.222;2022-07-29T03:43:15;19.90;68.00
44431;DHT22;30135;47.866;-4.222;2022-07-29T03:45:49;19.90;68.00
44431;DHT22;30135;47.866;-4.222;2022-07-29T03:48:20;19.90;68.00
44431;DHT22;30135;47.866;-4.222;2022-07-29T03:50:47;19.90;68.10
44431;DHT22;30135;47.866;-4.222;2022-07-29T03:53:14;19.90;68.10
44431;DHT22;30135;47.866;-4.222;2022-07-29T03:55:45;19.90;68.90
44431;DHT22;30135;47.866;-4.222;2022-07-29T03:58:14;19.90;68.10
44431;DHT22;30135;47.866;-4.222;2022-07-29T04:00:42;19.90;68.10
44431;DHT22;30135;47.866;-4.222;2022-07-29T04:03:09;19.90;68.20
44431;DHT22;30135;47.866;-4.222;2022-07-29T04:05:36;19.90;68.20
44431;DHT22;30135;47.866;-4.222;2022-07-29T04:08:02;19.90;68.30
44431;DHT22;30135;47.866;-4.222;2022-07-29T04:10:29;19.90;68.30
44431;DHT22;30135;47.866;-4.222;2022-07-29T04:13:01;19.80;68.30
44431;DHT22;30135;47.866;-4.222;2022-07-29T04:15:27;19.90;68.40
44431;DHT22;30135;47.866;-4.222;2022-07-29T04:17:54;19.90;68.50
44431;DHT22;30135;47.866;-4.222;2022-07-29T04:20:20;19.80;68.40
44431;DHT22;30135;47.866;-4.222;2022-07-29T04:22:46;19.80;68.40
44431;DHT22;30135;47.866;-4.222;2022-07-29T04:25:12;19.80;68.40
44431;DHT22;30135;47.866;-4.222;2022-07-29T04:27:38;19.80;68.40
44431;DHT22;30135;47.866;-4.222;2022-07-29T04:30:24;19.80;68.50
44431;DHT22;30135;47.866;-4.222;2022-07-29T04:32:50;19.80;68.50
44431;DHT22;30135;47.866;-4.222;2022-07-29T04:35:18;19.80;68.60
44431;DHT22;30135;47.866;-4.222;2022-07-29T04:37:44;19.80;68.60
44431;DHT22;30135;47.866;-4.222;2022-07-29T04:40:10;19.80;68.60
44431;DHT22;30135;47.866;-4.222;2022-07-29T04:42:37;19.80;68.70
44431;DHT22;30135;47.866;-4.222;2022-07-29T04:45:04;19.80;68.70
44431;DHT22;30135;47.866;-4.222;2022-07-29T04:47:31;19.80;68.80
44431;DHT22;30135;47.866;-4.222;2022-07-29T04:49:57;19.80;68.80
44431;DHT22;30135;47.866;-4.222;2022-07-29T04:52:23;19.80;68.80
44431;DHT22;30135;47.866;-4.222;2022-07-29T04:54:49;19.80;68.80
44431;DHT22;30135;47.866;-4.222;2022-07-29T04:57:15;19.70;68.80
44431;DHT22;30135;47.866;-4.222;2022-07-29T04:59:41;19.70;68.80
44431;DHT22;30135;47.866;-4.222;2022-07-29T05:02:06;19.70;68.80
44431;DHT22;30135;47.866;-4.222;2022-07-29T05:04:32;19.70;68.80
44431;DHT22;30135;47.866;-4.222;2022-07-29T05:06:58;19.70;68.90
44431;DHT22;30135;47.866;-4.222;2022-07-29T05:09:24;19.60;69.00
44431;DHT22;30135;47.866;-4.222;2022-07-29T05:11:50;19.70;69.00
44431;DHT22;30135;47.866;-4.222;2022-07-29T05:14:22;19.60;69.00
44431;DHT22;30135;47.866;-4.222;2022-07-29T05:16:48;19.60;69.00
44431;DHT22;30135;47.866;-4.222;2022-07-29T05:19:16;19.60;69.00
44431;DHT22;30135;47.866;-4.222;2022-07-29T05:21:44;19.60;69.00
44431;DHT22;30135;47.866;-4.222;2022-07-29T05:24:10;19.60;69.00
44431;DHT22;30135;47.866;-4.222;2022-07-29T05:26:36;19.50;69.70
44431;DHT22;30135;47.866;-4.222;2022-07-29T05:29:02;19.50;69.00
44431;DHT22;30135;47.866;-4.222;2022-07-29T05:31:28;19.50;69.10
44431;DHT22;30135;47.866;-4.222;2022-07-29T05:33:54;19.50;69.20
44431;DHT22;30135;47.866;-4.222;2022-07-29T05:36:20;19.50;69.20
44431;DHT22;30135;47.866;-4.222;2022-07-29T05:38:46;19.50;69.30
44431;DHT22;30135;47.866;-4.222;2022-07-29T05:41:12;19.40;69.30
44431;DHT22;30135;47.866;-4.222;2022-07-29T05:43:38;19.40;69.40
44431;DHT22;30135;47.866;-4.222;2022-07-29T05:46:03;19.40;69.40
44431;DHT22;30135;47.866;-4.222;2022-07-29T05:48:29;19.40;69.50
44431;DHT22;30135;47.866;-4.222;2022-07-29T05:50:55;19.40;69.60
44431;DHT22;30135;47.866;-4.222;2022-07-29T05:53:22;19.40;69.60
44431;DHT22;30135;47.866;-4.222;2022-07-29T05:55:49;19.40;69.70
44431;DHT22;30135;47.866;-4.222;2022-07-29T05:58:15;19.40;69.80
44431;DHT22;30135;47.866;-4.222;2022-07-29T06:00:41;19.40;69.80
44431;DHT22;30135;47.866;-4.222;2022-07-29T06:03:07;19.30;69.80
44431;DHT22;30135;47.866;-4.222;2022-07-29T06:05:33;19.30;69.80
44431;DHT22;30135;47.866;-4.222;2022-07-29T06:07:59;19.30;69.90
44431;DHT22;30135;47.866;-4.222;2022-07-29T06:10:25;19.30;69.90
44431;DHT22;30135;47.866;-4.222;2022-07-29T06:12:52;19.30;70.00
44431;DHT22;30135;47.866;-4.222;2022-07-29T06:15:24;19.30;70.00
44431;DHT22;30135;47.866;-4.222;2022-07-29T06:17:51;19.30;70.00
44431;DHT22;30135;47.866;-4.222;2022-07-29T06:20:18;19.30;70.00
44431;DHT22;30135;47.866;-4.222;2022-07-29T06:22:44;19.30;70.10
44431;DHT22;30135;47.866;-4.222;2022-07-29T06:25:10;19.30;70.00
44431;DHT22;30135;47.866;-4.222;2022-07-29T06:27:37;19.30;70.00
44431;DHT22;30135;47.866;-4.222;2022-07-29T06:30:03;19.20;69.90
44431;DHT22;30135;47.866;-4.222;2022-07-29T06:32:32;19.30;70.00
44431;DHT22;30135;47.866;-4.222;2022-07-29T06:34:59;19.30;70.00
44431;DHT22;30135;47.866;-4.222;2022-07-29T06:37:25;19.20;69.90
44431;DHT22;30135;47.866;-4.222;2022-07-29T06:39:51;19.20;69.90
44431;DHT22;30135;47.866;-4.222;2022-07-29T06:42:37;19.20;69.90
44431;DHT22;30135;47.866;-4.222;2022-07-29T06:45:08;19.20;69.90
44431;DHT22;30135;47.866;-4.222;2022-07-29T06:47:34;19.20;69.90
44431;DHT22;30135;47.866;-4.222;2022-07-29T06:50:00;19.20;70.00
44431;DHT22;30135;47.866;-4.222;2022-07-29T06:52:26;19.20;70.00
44431;DHT22;30135;47.866;-4.222;2022-07-29T06:54:52;19.20;70.00
44431;DHT22;30135;47.866;-4.222;2022-07-29T06:57:18;19.30;70.10
44431;DHT22;30135;47.866;-4.222;2022-07-29T06:59:44;19.30;70.10
44431;DHT22;30135;47.866;-4.222;2022-07-29T07:02:11;19.30;70.10
44431;DHT22;30135;47.866;-4.222;2022-07-29T07:04:36;19.30;70.00
44431;DHT22;30135;47.866;-4.222;2022-07-29T07:07:06;19.30;70.00
44431;DHT22;30135;47.866;-4.222;2022-07-29T07:09:32;19.30;70.00
44431;DHT22;30135;47.866;-4.222;2022-07-29T07:11:58;19.30;70.00
44431;DHT22;30135;47.866;-4.222;2022-07-29T07:14:24;19.40;70.00
44431;DHT22;30135;47.866;-4.222;2022-07-29T07:16:59;19.40;69.90
44431;DHT22;30135;47.866;-4.222;2022-07-29T07:19:26;19.40;69.80
44431;DHT22;30135;47.866;-4.222;2022-07-29T07:21:55;19.40;69.80
44431;DHT22;30135;47.866;-4.222;2022-07-29T07:24:21;19.40;69.70
44431;DHT22;30135;47.866;-4.222;2022-07-29T07:26:47;19.40;69.60
44431;DHT22;30135;47.866;-4.222;2022-07-29T07:29:13;19.50;69.60
44431;DHT22;30135;47.866;-4.222;2022-07-29T07:31:39;19.50;69.50
44431;DHT22;30135;47.866;-4.222;2022-07-29T07:34:05;19.60;69.40
44431;DHT22;30135;47.866;-4.222;2022-07-29T07:36:31;19.60;69.30
44431;DHT22;30135;47.866;-4.222;2022-07-29T07:38:57;19.60;69.20
44431;DHT22;30135;47.866;-4.222;2022-07-29T07:41:23;19.70;69.10
44431;DHT22;30135;47.866;-4.222;2022-07-29T07:43:49;19.70;69.00
44431;DHT22;30135;47.866;-4.222;2022-07-29T07:46:15;19.70;69.10
44431;DHT22;30135;47.866;-4.222;2022-07-29T07:48:41;19.80;69.00
44431;DHT22;30135;47.866;-4.222;2022-07-29T07:51:07;19.80;68.90
44431;DHT22;30135;47.866;-4.222;2022-07-29T07:53:39;19.80;68.50
44431;DHT22;30135;47.866;-4.222;2022-07-29T07:56:06;19.90;68.40
44431;DHT22;30135;47.866;-4.222;2022-07-29T07:58:32;19.90;68.20
44431;DHT22;30135;47.866;-4.222;2022-07-29T08:01:00;19.90;68.10
44431;DHT22;30135;47.866;-4.222;2022-07-29T08:03:26;19.90;68.10
44431;DHT22;30135;47.866;-4.222;2022-07-29T08:05:52;20.00;68.80
44431;DHT22;30135;47.866;-4.222;2022-07-29T08:08:19;20.00;68.00
44431;DHT22;30135;47.866;-4.222;2022-07-29T08:10:46;20.00;68.00
44431;DHT22;30135;47.866;-4.222;2022-07-29T08:13:19;20.10;68.00
44431;DHT22;30135;47.866;-4.222;2022-07-29T08:15:47;20.10;67.90
44431;DHT22;30135;47.866;-4.222;2022-07-29T08:18:31;20.20;67.90
44431;DHT22;30135;47.866;-4.222;2022-07-29T08:20:58;20.20;67.70
44431;DHT22;30135;47.866;-4.222;2022-07-29T08:23:24;20.20;68.40
44431;DHT22;30135;47.866;-4.222;2022-07-29T08:25:52;20.30;67.70
44431;DHT22;30135;47.866;-4.222;2022-07-29T08:28:19;20.30;67.60
44431;DHT22;30135;47.866;-4.222;2022-07-29T08:30:45;20.30;67.50
44431;DHT22;30135;47.866;-4.222;2022-07-29T08:33:11;20.40;67.50
44431;DHT22;30135;47.866;-4.222;2022-07-29T08:35:39;20.40;67.30
44431;DHT22;30135;47.866;-4.222;2022-07-29T08:38:05;20.50;67.30
44431;DHT22;30135;47.866;-4.222;2022-07-29T08:40:31;20.50;67.00
44431;DHT22;30135;47.866;-4.222;2022-07-29T08:42:57;20.50;66.80
44431;DHT22;30135;47.866;-4.222;2022-07-29T08:45:24;20.60;66.70
44431;DHT22;30135;47.866;-4.222;2022-07-29T08:47:50;20.60;66.50
44431;DHT22;30135;47.866;-4.222;2022-07-29T08:50:19;20.70;66.00
44431;DHT22;30135;47.866;-4.222;2022-07-29T08:52:46;20.70;65.60
44431;DHT22;30135;47.866;-4.222;2022-07-29T08:55:15;20.70;65.20
44431;DHT22;30135;47.866;-4.222;2022-07-29T08:57:42;20.80;64.80
44431;DHT22;30135;47.866;-4.222;2022-07-29T09:00:09;20.90;64.50
44431;DHT22;30135;47.866;-4.222;2022-07-29T09:02:40;20.90;63.90
44431;DHT22;30135;47.866;-4.222;2022-07-29T09:05:07;21.00;63.50
44431;DHT22;30135;47.866;-4.222;2022-07-29T09:07:34;21.00;63.30
44431;DHT22;30135;47.866;-4.222;2022-07-29T09:10:02;21.00;63.00
44431;DHT22;30135;47.866;-4.222;2022-07-29T09:12:30;21.10;62.70
44431;DHT22;30135;47.866;-4.222;2022-07-29T09:14:56;21.10;62.50
44431;DHT22;30135;47.866;-4.222;2022-07-29T09:17:44;21.10;62.50
44431;DHT22;30135;47.866;-4.222;2022-07-29T09:20:19;21.20;62.10
44431;DHT22;30135;47.866;-4.222;2022-07-29T09:22:48;21.30;62.10
44431;DHT22;30135;47.866;-4.222;2022-07-29T09:25:51;21.30;61.90
44431;DHT22;30135;47.866;-4.222;2022-07-29T09:28:18;21.40;61.10
44431;DHT22;30135;47.866;-4.222;2022-07-29T09:31:10;21.40;61.60
44431;DHT22;30135;47.866;-4.222;2022-07-29T09:33:36;21.50;61.20
44431;DHT22;30135;47.866;-4.222;2022-07-29T09:36:08;21.60;61.30
44431;DHT22;30135;47.866;-4.222;2022-07-29T09:38:36;21.70;60.80
44431;DHT22;30135;47.866;-4.222;2022-07-29T09:41:05;21.70;60.70
44431;DHT22;30135;47.866;-4.222;2022-07-29T09:43:34;21.80;60.30
44431;DHT22;30135;47.866;-4.222;2022-07-29T09:46:13;21.90;60.00
44431;DHT22;30135;47.866;-4.222;2022-07-29T09:48:40;22.00;59.40
44431;DHT22;30135;47.866;-4.222;2022-07-29T09:51:28;22.00;59.50
44431;DHT22;30135;47.866;-4.222;2022-07-29T09:53:55;22.10;59.10
44431;DHT22;30135;47.866;-4.222;2022-07-29T09:56:39;22.20;59.10
44431;DHT22;30135;47.866;-4.222;2022-07-29T09:59:07;22.30;59.10
44431;DHT22;30135;47.866;-4.222;2022-07-29T10:01:35;22.40;59.10
44431;DHT22;30135;47.866;-4.222;2022-07-29T10:04:02;22.50;58.80
44431;DHT22;30135;47.866;-4.222;2022-07-29T10:06:30;22.50;58.60
44431;DHT22;30135;47.866;-4.222;2022-07-29T10:09:10;22.60;58.50
44431;DHT22;30135;47.866;-4.222;2022-07-29T10:11:37;22.70;58.10
44431;DHT22;30135;47.866;-4.222;2022-07-29T10:14:04;22.80;58.20
44431;DHT22;30135;47.866;-4.222;2022-07-29T10:16:33;22.90;58.10
44431;DHT22;30135;47.866;-4.222;2022-07-29T10:18:59;23.00;58.20
44431;DHT22;30135;47.866;-4.222;2022-07-29T10:21:33;23.00;57.90
44431;DHT22;30135;47.866;-4.222;2022-07-29T10:23:59;23.10;57.80
44431;DHT22;30135;47.866;-4.222;2022-07-29T10:26:26;23.10;57.60
44431;DHT22;30135;47.866;-4.222;2022-07-29T10:28:52;23.20;57.50
44431;DHT22;30135;47.866;-4.222;2022-07-29T10:43:28;23.60;56.20
44431;DHT22;30135;47.866;-4.222;2022-07-29T10:46:00;23.80;55.60
44431;DHT22;30135;47.866;-4.222;2022-07-29T10:48:28;23.90;55.80
44431;DHT22;30135;47.866;-4.222;2022-07-29T10:51:04;24.00;55.50
44431;DHT22;30135;47.866;-4.222;2022-07-29T10:53:52;24.00;55.00
44431;DHT22;30135;47.866;-4.222;2022-07-29T10:56:28;24.10;55.10
44431;DHT22;30135;47.866;-4.222;2022-07-29T10:59:36;24.20;55.10
44431;DHT22;30135;47.866;-4.222;2022-07-29T11:02:02;24.30;54.50
44431;DHT22;30135;47.866;-4.222;2022-07-29T11:05:08;24.40;54.80
44431;DHT22;30135;47.866;-4.222;2022-07-29T11:08:16;24.50;54.40
44431;DHT22;30135;47.866;-4.222;2022-07-29T11:16:17;24.80;54.40
44431;DHT22;30135;47.866;-4.222;2022-07-29T11:21:46;25.10;54.10
44431;DHT22;30135;47.866;-4.222;2022-07-29T11:24:29;25.10;54.00
44431;DHT22;30135;47.866;-4.222;2022-07-29T11:32:16;25.30;53.70
44431;DHT22;30135;47.866;-4.222;2022-07-29T11:34:47;25.40;53.60
44431;DHT22;30135;47.866;-4.222;2022-07-29T11:37:16;25.50;53.40
44431;DHT22;30135;47.866;-4.222;2022-07-29T11:45:11;25.80;52.90
44431;DHT22;30135;47.866;-4.222;2022-07-29T11:47:49;25.90;52.40
44431;DHT22;30135;47.866;-4.222;2022-07-29T11:50:36;25.90;52.20
44431;DHT22;30135;47.866;-4.222;2022-07-29T11:53:10;26.00;52.10
44431;DHT22;30135;47.866;-4.222;2022-07-29T11:55:38;26.10;51.90
44431;DHT22;30135;47.866;-4.222;2022-07-29T11:58:05;26.10;51.90
44431;DHT22;30135;47.866;-4.222;2022-07-29T12:00:41;26.10;51.70
44431;DHT22;30135;47.866;-4.222;2022-07-29T12:03:10;26.30;51.50
44431;DHT22;30135;47.866;-4.222;2022-07-29T12:05:42;26.30;51.40
44431;DHT22;30135;47.866;-4.222;2022-07-29T12:08:19;26.50;51.20
44431;DHT22;30135;47.866;-4.222;2022-07-29T12:10:48;26.50;51.00
44431;DHT22;30135;47.866;-4.222;2022-07-29T12:13:17;26.60;50.80
44431;DHT22;30135;47.866;-4.222;2022-07-29T12:15:57;26.70;50.60
44431;DHT22;30135;47.866;-4.222;2022-07-29T12:18:24;26.70;50.20
44431;DHT22;30135;47.866;-4.222;2022-07-29T12:21:01;26.70;50.40
44431;DHT22;30135;47.866;-4.222;2022-07-29T12:23:53;26.80;50.20
44431;DHT22;30135;47.866;-4.222;2022-07-29T12:26:23;26.80;50.00
44431;DHT22;30135;47.866;-4.222;2022-07-29T12:28:49;26.90;50.20
44431;DHT22;30135;47.866;-4.222;2022-07-29T12:31:15;26.90;50.00
44431;DHT22;30135;47.866;-4.222;2022-07-29T12:33:42;27.00;50.00
44431;DHT22;30135;47.866;-4.222;2022-07-29T12:36:08;27.00;49.80
44431;DHT22;30135;47.866;-4.222;2022-07-29T12:38:40;27.00;49.60
44431;DHT22;30135;47.866;-4.222;2022-07-29T12:41:07;27.10;49.50
44431;DHT22;30135;47.866;-4.222;2022-07-29T12:43:33;27.10;49.50
44431;DHT22;30135;47.866;-4.222;2022-07-29T12:46:12;27.10;49.30
44431;DHT22;30135;47.866;-4.222;2022-07-29T12:48:41;27.20;49.00
44431;DHT22;30135;47.866;-4.222;2022-07-29T12:51:10;27.10;49.20
44431;DHT22;30135;47.866;-4.222;2022-07-29T12:53:38;27.20;49.10
44431;DHT22;30135;47.866;-4.222;2022-07-29T12:56:05;27.20;48.70
44431;DHT22;30135;47.866;-4.222;2022-07-29T12:58:40;27.20;49.10
44431;DHT22;30135;47.866;-4.222;2022-07-29T13:01:17;27.30;49.40
44431;DHT22;30135;47.866;-4.222;2022-07-29T13:03:51;27.30;49.00
44431;DHT22;30135;47.866;-4.222;2022-07-29T13:09:35;27.40;49.00
44431;DHT22;30135;47.866;-4.222;2022-07-29T13:11:52;27.40;49.00
44431;DHT22;30135;47.866;-4.222;2022-07-29T13:14:41;27.50;49.00
44431;DHT22;30135;47.866;-4.222;2022-07-29T13:17:13;27.50;48.50
44431;DHT22;30135;47.866;-4.222;2022-07-29T13:22:16;27.60;48.70
44431;DHT22;30135;47.866;-4.222;2022-07-29T13:27:17;27.60;48.50
44431;DHT22;30135;47.866;-4.222;2022-07-29T13:29:47;27.50;48.80
44431;DHT22;30135;47.866;-4.222;2022-07-29T13:32:14;27.50;48.60
44431;DHT22;30135;47.866;-4.222;2022-07-29T13:34:40;27.50;48.50
44431;DHT22;30135;47.866;-4.222;2022-07-29T13:37:06;27.60;48.30
44431;DHT22;30135;47.866;-4.222;2022-07-29T13:39:33;27.60;48.20
44431;DHT22;30135;47.866;-4.222;2022-07-29T13:42:00;27.50;48.20
44431;DHT22;30135;47.866;-4.222;2022-07-29T13:44:26;27.60;48.30
44431;DHT22;30135;47.866;-4.222;2022-07-29T13:46:52;27.60;48.00
44431;DHT22;30135;47.866;-4.222;2022-07-29T13:49:18;27.60;47.70
44431;DHT22;30135;47.866;-4.222;2022-07-29T13:51:52;27.50;47.40
44431;DHT22;30135;47.866;-4.222;2022-07-29T13:54:31;27.50;47.50
44431;DHT22;30135;47.866;-4.222;2022-07-29T13:57:04;27.60;47.50
44431;DHT22;30135;47.866;-4.222;2022-07-29T13:59:30;27.50;47.40
44431;DHT22;30135;47.866;-4.222;2022-07-29T14:01:56;27.60;48.20
44431;DHT22;30135;47.866;-4.222;2022-07-29T14:04:22;27.70;47.70
44431;DHT22;30135;47.866;-4.222;2022-07-29T14:06:49;27.70;48.10
44431;DHT22;30135;47.866;-4.222;2022-07-29T14:09:16;27.80;47.60
44431;DHT22;30135;47.866;-4.222;2022-07-29T14:11:42;27.70;47.30
44431;DHT22;30135;47.866;-4.222;2022-07-29T14:14:08;27.80;47.20
44431;DHT22;30135;47.866;-4.222;2022-07-29T14:16:36;27.80;47.10
44431;DHT22;30135;47.866;-4.222;2022-07-29T14:19:03;27.90;46.80
44431;DHT22;30135;47.866;-4.222;2022-07-29T14:21:29;27.90;46.70
44431;DHT22;30135;47.866;-4.222;2022-07-29T14:23:56;28.00;46.80
44431;DHT22;30135;47.866;-4.222;2022-07-29T14:26:24;28.00;46.70
44431;DHT22;30135;47.866;-4.222;2022-07-29T14:28:50;28.00;46.60
44431;DHT22;30135;47.866;-4.222;2022-07-29T14:31:16;28.00;46.40
44431;DHT22;30135;47.866;-4.222;2022-07-29T14:33:42;28.10;46.50
44431;DHT22;30135;47.866;-4.222;2022-07-29T14:36:08;28.10;46.40
44431;DHT22;30135;47.866;-4.222;2022-07-29T14:38:36;28.10;46.20
44431;DHT22;30135;47.866;-4.222;2022-07-29T14:41:03;28.10;46.20
44431;DHT22;30135;47.866;-4.222;2022-07-29T14:43:29;28.10;46.40
44431;DHT22;30135;47.866;-4.222;2022-07-29T14:45:55;28.10;46.40
44431;DHT22;30135;47.866;-4.222;2022-07-29T14:48:21;28.10;46.10
44431;DHT22;30135;47.866;-4.222;2022-07-29T14:50:48;28.10;46.10
44431;DHT22;30135;47.866;-4.222;2022-07-29T14:53:14;28.00;46.00
44431;DHT22;30135;47.866;-4.222;2022-07-29T14:55:41;28.00;45.90
44431;DHT22;30135;47.866;-4.222;2022-07-29T14:58:15;28.00;46.00
44431;DHT22;30135;47.866;-4.222;2022-07-29T15:00:42;28.10;46.00
44431;DHT22;30135;47.866;-4.222;2022-07-29T15:03:09;28.00;45.70
44431;DHT22;30135;47.866;-4.222;2022-07-29T15:05:36;28.00;45.60
44431;DHT22;30135;47.866;-4.222;2022-07-29T15:08:03;28.00;45.50
44431;DHT22;30135;47.866;-4.222;2022-07-29T15:10:29;28.00;45.50
44431;DHT22;30135;47.866;-4.222;2022-07-29T15:12:56;28.00;45.40
44431;DHT22;30135;47.866;-4.222;2022-07-29T15:15:22;28.00;45.40
44431;DHT22;30135;47.866;-4.222;2022-07-29T15:17:49;28.00;45.40
44431;DHT22;30135;47.866;-4.222;2022-07-29T15:20:15;27.90;45.50
44431;DHT22;30135;47.866;-4.222;2022-07-29T15:22:46;27.90;45.60
44431;DHT22;30135;47.866;-4.222;2022-07-29T15:25:12;27.90;45.60
44431;DHT22;30135;47.866;-4.222;2022-07-29T15:27:38;27.90;45.50
44431;DHT22;30135;47.866;-4.222;2022-07-29T15:30:06;27.90;45.50
44431;DHT22;30135;47.866;-4.222;2022-07-29T15:32:32;27.90;45.50
44431;DHT22;30135;47.866;-4.222;2022-07-29T15:34:58;27.90;45.50
44431;DHT22;30135;47.866;-4.222;2022-07-29T15:37:24;27.90;45.70
44431;DHT22;30135;47.866;-4.222;2022-07-29T15:39:52;27.90;45.50
44431;DHT22;30135;47.866;-4.222;2022-07-29T15:42:18;27.90;45.50
44431;DHT22;30135;47.866;-4.222;2022-07-29T15:44:44;27.90;45.40
44431;DHT22;30135;47.866;-4.222;2022-07-29T15:47:11;27.80;45.40
44431;DHT22;30135;47.866;-4.222;2022-07-29T15:49:39;27.80;45.40
44431;DHT22;30135;47.866;-4.222;2022-07-29T15:52:08;27.80;45.30
44431;DHT22;30135;47.866;-4.222;2022-07-29T15:54:56;27.80;45.80
44431;DHT22;30135;47.866;-4.222;2022-07-29T15:57:43;27.70;45.60
44431;DHT22;30135;47.866;-4.222;2022-07-29T16:00:37;27.70;45.60
44431;DHT22;30135;47.866;-4.222;2022-07-29T16:03:24;27.70;45.70
44431;DHT22;30135;47.866;-4.222;2022-07-29T16:06:14;27.70;45.90
44431;DHT22;30135;47.866;-4.222;2022-07-29T16:09:01;27.80;45.90
44431;DHT22;30135;47.866;-4.222;2022-07-29T16:11:48;27.70;45.80
44431;DHT22;30135;47.866;-4.222;2022-07-29T16:14:19;27.70;45.70
44431;DHT22;30135;47.866;-4.222;2022-07-29T16:16:46;27.80;45.90
44431;DHT22;30135;47.866;-4.222;2022-07-29T16:19:13;27.70;45.70
44431;DHT22;30135;47.866;-4.222;2022-07-29T16:21:39;27.70;45.70